【METAR】 空港の天気 【TAF】 [無断転載禁止]©2ch.net

1名無しSUN2016/05/30(月) 23:17:28.89ID:SlFWcLbl
ここで調べて近くの空港の天気を貼りつけましょう

空港の天気
https://www.time-j.net/Metar/Japan

METARの読み方
https://www.time-j.net/Metar/HowToRead

249名無しSUN2017/11/24(金) 21:55:58.67ID:dPELAoNs
11/24 21:00
METAR RJNA 241200Z VRB01KT 9999 FEW030 SCT080 07/02 Q1022 RMK 1CU030
3AC080 A3020=

250名無しSUN2017/11/28(火) 22:39:09.90ID:jxuD/ch8
11/28 22:00
METAR RJNA 281300Z 35005KT 9999 FEW/// 08/05 Q1023 RMK A3023=

251名無しSUN2017/12/01(金) 21:33:33.25ID:Mp94/MUi
12/01 21:00
METAR RJNA 011200Z 29006KT 9999 FEW030 07/03 Q1023 RMK 1CU030 A3022=

252名無しSUN2017/12/05(火) 22:11:57.67ID:sHoOx5h/
METAR RJNA 051200Z 28007KT 9999 FEW030 07/M06 Q1014 RMK 1CU030 A2994=
07/M06・・・気温7度 露点温度−6度 湿度39%

253名無しSUN2017/12/08(金) 21:55:53.88ID:f39WSOZX
12/08 21:00
METAR RJNA 081200Z 33010KT 9999 FEW040 04/M01 Q1011 RMK 1SC040 A2986=

254名無しSUN2017/12/12(火) 22:15:24.09ID:Lb1Oz26X
12/12 22:00
METAR RJNA 121300Z 31009KT 9999 -SHRA FEW020 BKN050 BKN/// 04/M02
Q1018 RMK 1CU020 6SC050 A3007=

255名無しSUN2017/12/15(金) 22:05:27.71ID:8IO8K0bK
12/15 21:00
METAR RJNA 151200Z VRB01KT 9999 FEW030 BKN/// 06/00 Q1020 RMK 1CU030
A3015=

256名無しSUN2017/12/19(火) 22:26:28.07ID:kHdmboV2
12/19 22:00
METAR RJNA 191300Z 31003KT 9999 FEW030 03/01 Q1025 RMK 1CU030 A3028=

257名無しSUN2017/12/23(土) 01:56:15.11ID:x7FFdymq
12/23 01:00
METAR RJNA 221600Z VRB02KT 9999 FEW030 02/M01 Q1023 RMK 1CU030 A3022=

258名無しSUN2017/12/26(火) 22:05:22.85ID:0S3gfuxP
12/26 21:44
RJNA 261244Z 30011KT 9999 -SHRA FEW010 SCT015 BKN030 03/01
Q1011 RMK 1CU010 3CU015 6CU030 A2987=

259名無しSUN2018/01/07(日) 00:17:36.48ID:Epo4+7gU
01/07 00:00
METAR RJNA 061500Z 31011KT 9999 FEW030 04/M04 Q1018 RMK 1CU030 A3008=

260名無しSUN2018/01/09(火) 23:46:38.01ID:PawdB7kn
01/09 23:00
METAR RJNA 091400Z VRB01KT 9999 FEW020 BKN050 04/M02 Q1010 RMK 1CU020
5SC050 A2984=

261名無しSUN2018/01/13(土) 22:13:54.81ID:HVXlXgFo
01/13 21:33
RJNA 131233Z 33007KT 8000 FEW008 SCT025 BKN050 01/01 Q1025 RMK
1ST008 4CU025 7SC050 A3030=

262名無しSUN2018/01/16(火) 22:05:13.94ID:fgQ8KiiR
01/16 22:00
METAR RJNA 161300Z 07003KT 040V100 9999 FEW020 SCT030 BKN060 08/05
Q1018 RMK 1CU020 3CU030 6SC060 A3008=

263名無しSUN2018/01/23(火) 20:42:49.79ID:Jsg91QAr
01/23 20:00
METAR RJNA 231100Z 33010KT 9999 FEW020 00/M03 Q1012 RMK 1CU020 A2991=

264名無しSUN2018/01/28(日) 23:26:35.19ID:mOpvITId
01/28 23:00
METAR RJNA 281400Z 33004KT 9999 FEW020 SCT030 BKN/// M00/M01 Q1014
RMK 1CU020 3CU030 A2996=

265名無しSUN2018/01/30(火) 21:11:30.10ID:Wj6N+zfF
01/30 21:00
METAR RJNA 301200Z 36004KT 9999 FEW015 BKN050 02/M02 Q1022 RMK 1CU015
7SC050 A3019=

266名無しSUN2018/02/03(土) 22:00:08.84ID:yA8FjB10
02/03 21:00
METAR RJNA 031200Z 29009KT 9999 FEW030 04/M01 Q1015 RMK 1CU030 A2999=

267名無しSUN2018/02/06(火) 23:40:10.05ID:1nV07s/9
02/06 23:00
METAR RJNA 061400Z VRB01KT 9999 FEW030 M01/M06 Q1015 RMK 1CU030
A3000=

268名無しSUN2018/02/11(日) 01:17:13.66ID:0pG6Q/ht
02/11 01:00
METAR RJNA 101600Z 33007KT 5000 -RA BR FEW008 BKN020 BKN035 05/05
Q1009 RMK 1ST008 5SC020 7SC035 A2981=

269名無しSUN2018/02/13(火) 21:28:38.25ID:qJZskM3l
02/13 21:00
METAR RJNA 131200Z 01004KT 330V050 9999 FEW020 01/M02 Q1022 RMK
1CU020 A3019=

270名無しSUN2018/02/16(金) 23:16:41.24ID:1toRnGAH
02/16 23:00
METAR RJNA 161400Z 01003KT 9999 FEW030 BKN110 BKN170 07/M04 Q1010 RMK
1CU030 5AC110 6AC170 A2983=

271名無しSUN2018/02/21(水) 00:56:46.33ID:9n43DsWp
02/21 00:00
METAR RJNA 201500Z 32005KT 9999 FEW030 BKN/// 06/M02 Q1017 RMK 1CU030
A3004=

272名無しSUN2018/02/26(月) 00:23:55.09ID:2O11w3E9
02/26 00:00
METAR RJNA 251500Z VRB01KT 9999 FEW030 SCT050 BKN080 08/M02 Q1021 RMK
1CU030 3SC050 5AC080 A3015=

273名無しSUN2018/03/02(金) 20:25:41.66ID:sIH3eHnv
03/02 20:00
METAR RJNA 021100Z 32006KT 9999 FEW030 06/M05 Q1016 RMK 1CU030 A3002=

274名無しSUN2018/03/07(水) 22:29:49.14ID:Ta411NnK
03/07 22:00
METAR RJNA 071300Z 01003KT 350V050 9999 FEW030 BKN050 BKN/// 08/01
Q1029 RMK 1CU030 5SC050 A3039=

275名無しSUN2018/03/11(日) 22:54:03.89ID:bJvtrGpm
03/11 22:00
METAR RJNA 111300Z 35008KT 9999 FEW040 07/M04 Q1023 RMK 1SC040 A3022=

276名無しSUN2018/03/13(火) 22:41:00.36ID:+BF7Euof
03/13 22:00
METAR RJNA 131300Z VRB01KT 9999 FEW030 13/08 Q1021 RMK 1CU030 A3017=

277名無しSUN2018/03/21(水) 09:48:30.01ID:JMI6vn+m
03/21 09:28
RJNA 210028Z 28003KT 4000 RA BR FEW004 SCT006 BKN008 07/07
Q1014 RMK 1ST004 3ST006 5ST008 A2996=

RA・・・雨  BR…もや

278名無しSUN2018/03/23(金) 22:12:20.38ID:GFMIGYgu
03/23 21:00
METAR RJNA 231200Z 31012KT 9999 FEW030 08/02 Q1017 RMK 1CU030 A3005=

279名無しSUN2018/04/01(日) 00:59:11.44ID:YGorXP93
04/01 00:00
METAR RJNA 311500Z VRB02KT 9999 FEW030 13/08 Q1021 RMK 1CU030 A3017=

280名無しSUN2018/04/05(木) 00:39:58.28ID:58ALX5kj
04/05 00:00
METAR RJNA 041500Z 28009KT 250V310 9999 FEW030 SCT070 13/07 Q1016 RMK
1CU030 3AC070 A3003=

281名無しSUN2018/04/07(土) 23:12:42.77ID:xRjVGKxI
04/07 22:32
RJNA 071332Z 35003KT 9999 -SHRA FEW030 SCT040 BKN080 08/03
Q1010 RMK 1CU030 3SC040 7AC080 A2985=

282名無しSUN2018/04/11(水) 23:18:36.41ID:Ruo1ZfiN
04/11 23:00
METAR RJNA 111400Z VRB01KT 9999 -SHRA FEW020 SCT030 BKN045 17/15
Q1010 RMK 1CU020 3CU030 6SC045 A2984=

283名無しSUN2018/04/14(土) 22:17:46.88ID:qVsqy0LC
04/14 22:00
METAR RJNA 141300Z 10006KT 4000 SHRA BR FEW008 SCT015 BKN025 14/13
Q1009 RMK 1ST008 3CU015 7CU025 A2981=

284名無しSUN2018/04/17(火) 23:46:58.74ID:yfidWWfT
04/17 23:00
METAR RJNA 171400Z 36004KT 4000 -SHRA BR FEW005 BKN015 BKN020 13/12
Q1017 RMK 1ST005 5CU015 5CU020 A3005=

285名無しSUN2018/04/21(土) 23:38:12.84ID:9G1t+woU
04/21 23:00
METAR RJNA 211400Z VRB02KT 9999 NSC 19/12 Q1020 RMK A3014=

NSC・・・特に目立った雲はない

286名無しSUN2018/04/27(金) 00:40:51.11ID:Nv24PaHa
04/27 00:00
METAR RJNA 261500Z VRB01KT 9999 SCT020 BKN050 BKN/// 18/12 Q1013 RMK
3CU020 5SC050 A2993=

287名無しSUN2018/05/01(火) 00:37:25.56ID:PjmLyPTQ
05/01 00:00
METAR RJNA 301500Z VRB02KT 9999 FEW030 17/13 Q1015 RMK 1CU030 A3000=

288名無しSUN2018/05/11(金) 00:35:00.25ID:tgE4Z129
05/11 00:00
METAR RJNA 101500Z 30005KT 9999 FEW030 12/04 Q1020 RMK 1CU030 A3014=

289名無しSUN2018/05/16(水) 00:57:32.03ID:RrqD6e9E
05/16 00:00
METAR RJNA 151500Z VRB02KT 9999 FEW030 SCT/// 22/16 Q1013 RMK 1CU030
A2992=

290名無しSUN2018/05/20(日) 07:20:10.49ID:hgbsShWw
05/20 07:00
METAR RJNA 192200Z 34009KT 9999 FEW025 SCT050 14/06 Q1015 RMK 1CU025
4SC050 A2999=

291名無しSUN2018/05/22(火) 23:58:17.34ID:5oLvVLrp
05/22 23:00
METAR RJNA 221400Z 15009KT 9999 FEW030 SCT/// 19/12 Q1015 RMK 1CU030
A2998=

292名無しSUN2018/05/26(土) 00:28:04.74ID:FbT4VuUW
05/26 00:00
METAR RJNA 251500Z 05003KT 9999 BKN/// 22/13 Q1007 RMK A2976=

293名無しSUN2018/05/31(木) 01:37:49.82ID:JpnDV/BX
05/31 01:00
METAR RJNA 301600Z 35003KT 9999 FEW030 SCT150 BKN/// 17/15 Q1009 RMK
1CU030 3AC150 A2981=

294名無しSUN2018/06/05(火) 00:06:01.95ID:Rew3Yg3I
06/04 23:00
METAR RJNA 041400Z 22004KT 9999 FEW020 BKN060 23/17 Q1015 RMK 1CU020
7SC060 A2998=

295名無しSUN2018/06/06(水) 00:12:24.36ID:InHo/i2z
06/05 23:00
METAR RJNA 051400Z 14004KT 9999 -RA FEW030 SCT050 OVC120 23/18 Q1013
RMK 1CU030 3SC050 8AS120 A2993=

296名無しSUN2018/06/10(日) 00:25:20.82ID:HqWg+Uuj
06/10 00:00
METAR RJNA 091500Z 34006KT 9999 FEW030 20/16 Q1006 RMK 1CU030 A2971=

297名無しSUN2018/06/14(木) 00:36:33.60ID:zuKuE2Zc
06/14 00:00
METAR RJNH 131500Z 04005KT 9999 FEW070 21/18 Q1007 RMK 1AC070 A2974=

298名無しSUN2018/06/18(月) 23:24:58.49ID:sMIFCelg
06/18 23:00
METAR RJNA 181400Z 18003KT 140V220 9999 FEW030 BKN090 BKN/// 23/18
Q1008 RMK 1CU030 5AC090 A2977=

299名無しSUN2018/06/19(火) 23:40:24.57ID:NfHfrR1p
06/19 23:00
METAR RJNA 191400Z 14006KT 110V180 9999 -SHRA FEW008 BKN030 21/19
Q1008 RMK 1ST008 7CU030 A2979=

新着レスの表示
レスを投稿する